Wetterdaten: Woche 24.08.09 - 30.08.09 (KW35)
Datum Zeit Temperatur Luftfeuchte Luftdruck Niederschlag Windrichtung Wind
24.08.2009 00:00 13,6 C 88 % 1013,8 hPa 0,0 l/m N-NW 5,2 km/h (1 Bft)
24.08.2009 01:00 13,1 C 90 % 1013,3 hPa 0,0 l/m N-NW 5,5 km/h (1 Bft)
24.08.2009 02:00 12,7 C 91 % 1012,7 hPa 0,0 l/m N-NW 4,9 km/h (1 Bft)
24.08.2009 03:00 12,3 C 93 % 1012,5 hPa 0,0 l/m N-NW 5,5 km/h (1 Bft)
24.08.2009 04:00 12,0 C 93 % 1012,4 hPa 0,0 l/m N-NW 3,9 km/h (1 Bft)
24.08.2009 05:00 11,7 C 93 % 1012,3 hPa 0,0 l/m N-NW 3,2 km/h (1 Bft)
24.08.2009 06:00 11,3 C 93 % 1012,2 hPa 0,0 l/m N 1,9 km/h (1 Bft)
24.08.2009 07:00 11,2 C 95 % 1012,3 hPa 0,0 l/m N 1,9 km/h (1 Bft)
24.08.2009 08:00 12,1 C 96 % 1012,3 hPa 0,0 l/m N-NW 2,4 km/h (1 Bft)
24.08.2009 09:00 14,7 C 88 % 1012,1 hPa 0,0 l/m O-SO 5,5 km/h (1 Bft)
24.08.2009 10:00 17,8 C 81 % 1011,8 hPa 0,0 l/m SO 4,7 km/h (1 Bft)
24.08.2009 11:00 21,1 C 72 % 1011,4 hPa 0,0 l/m SO 5,3 km/h (1 Bft)
24.08.2009 12:00 24,3 C 63 % 1010,6 hPa 0,0 l/m O-SO 7,6 km/h (2 Bft)
24.08.2009 13:00 26,4 C 57 % 1010,2 hPa 0,0 l/m S-SW 8,8 km/h (2 Bft)
24.08.2009 14:00 27,8 C 53 % 1009,6 hPa 0,0 l/m SW 14,2 km/h (3 Bft)
24.08.2009 15:00 28,6 C 45 % 1009,3 hPa 0,0 l/m W-SW 20,8 km/h (4 Bft)
24.08.2009 16:00 28,7 C 42 % 1008,8 hPa 0,0 l/m W 18,8 km/h (3 Bft)
24.08.2009 17:00 28,4 C 42 % 1008,5 hPa 0,0 l/m W-SW 16,8 km/h (3 Bft)
24.08.2009 18:00 27,4 C 47 % 1008,2 hPa 0,0 l/m W-SW 8,8 km/h (2 Bft)
24.08.2009 19:00 24,8 C 60 % 1007,9 hPa 0,0 l/m W-SW 5,3 km/h (1 Bft)
24.08.2009 20:00 21,9 C 73 % 1007,8 hPa 0,0 l/m N 0,5 km/h (0 Bft)
24.08.2009 21:00 19,7 C 82 % 1008,1 hPa 0,0 l/m N 0,0 km/h (0 Bft)
24.08.2009 22:00 18,7 C 85 % 1008,2 hPa 0,0 l/m N 0,0 km/h (0 Bft)
24.08.2009 23:00 18,2 C 85 % 1008,0 hPa 0,0 l/m N 0,0 km/h (0 Bft)
25.08.2009 00:00 17,5 C 87 % 1007,8 hPa 0,0 l/m N 0,0 km/h (0 Bft)
25.08.2009 01:00 16,9 C 89 % 1008,1 hPa 0,0 l/m N 1,1 km/h (0 Bft)
25.08.2009 02:00 16,3 C 90 % 1008,1 hPa 0,0 l/m N 0,0 km/h (0 Bft)
25.08.2009 03:00 16,1 C 92 % 1008,4 hPa 0,0 l/m NO 5,0 km/h (1 Bft)
25.08.2009 04:00 16,5 C 90 % 1008,6 hPa 0,0 l/m S-SW 2,8 km/h (1 Bft)
25.08.2009 05:00 16,7 C 88 % 1009,4 hPa 0,0 l/m S 9,1 km/h (2 Bft)
25.08.2009 06:00 17,3 C 85 % 1009,8 hPa 0,0 l/m SW 11,5 km/h (2 Bft)
25.08.2009 07:00 18,8 C 77 % 1010,7 hPa 0,0 l/m W-NW 12,3 km/h (3 Bft)
25.08.2009 08:00 19,1 C 79 % 1010,9 hPa 0,0 l/m W 3,2 km/h (1 Bft)
25.08.2009 09:00 20,1 C 75 % 1011,1 hPa 0,0 l/m W-NW 15,8 km/h (3 Bft)
25.08.2009 10:00 20,7 C 71 % 1011,1 hPa 0,0 l/m SW 11,7 km/h (2 Bft)
25.08.2009 11:00 21,4 C 70 % 1010,7 hPa 0,0 l/m SW 8,0 km/h (2 Bft)
25.08.2009 12:00 23,2 C 65 % 1010,4 hPa 0,0 l/m W 7,9 km/h (2 Bft)
25.08.2009 13:00 25,4 C 54 % 1010,1 hPa 0,0 l/m SW 9,8 km/h (2 Bft)
25.08.2009 14:00 26,0 C 47 % 1009,9 hPa 0,0 l/m SW 8,4 km/h (2 Bft)
25.08.2009 15:00 26,5 C 49 % 1009,9 hPa 0,0 l/m W 8,2 km/h (2 Bft)
25.08.2009 16:00 27,0 C 49 % 1009,5 hPa 0,0 l/m W-NW 8,3 km/h (2 Bft)
25.08.2009 17:00 26,5 C 46 % 1009,6 hPa 0,0 l/m W-SW 8,0 km/h (2 Bft)
25.08.2009 18:00 25,1 C 54 % 1010,0 hPa 0,0 l/m W-SW 14,1 km/h (3 Bft)
25.08.2009 19:00 21,9 C 65 % 1011,1 hPa 0,0 l/m NW 19,4 km/h (3 Bft)
25.08.2009 20:00 19,6 C 82 % 1012,6 hPa 0,8 l/m W-SW 9,1 km/h (2 Bft)
25.08.2009 21:00 18,5 C 90 % 1013,5 hPa 1,8 l/m SW 8,7 km/h (2 Bft)
25.08.2009 22:00 17,8 C 93 % 1012,9 hPa 0,0 l/m SW 9,8 km/h (2 Bft)
25.08.2009 23:00 17,4 C 93 % 1012,9 hPa 0,0 l/m SW 5,5 km/h (1 Bft)
26.08.2009 00:00 16,8 C 93 % 1013,1 hPa 0,2 l/m N 1,6 km/h (1 Bft)
26.08.2009 01:00 16,5 C 93 % 1013,3 hPa 0,0 l/m W-SW 2,1 km/h (1 Bft)
26.08.2009 02:00 16,2 C 94 % 1013,5 hPa 0,0 l/m W-SW 1,1 km/h (0 Bft)
26.08.2009 03:00 16,1 C 95 % 1013,9 hPa 0,0 l/m N 0,7 km/h (0 Bft)
26.08.2009 04:00 16,2 C 96 % 1014,3 hPa 0,0 l/m N 1,2 km/h (1 Bft)
26.08.2009 05:00 16,1 C 96 % 1014,0 hPa 0,0 l/m N 1,5 km/h (1 Bft)
26.08.2009 06:00 16,1 C 96 % 1013,9 hPa 0,0 l/m N 0,9 km/h (0 Bft)
26.08.2009 07:00 16,2 C 96 % 1014,1 hPa 0,0 l/m S-SW 2,1 km/h (1 Bft)
26.08.2009 08:00 16,8 C 96 % 1014,1 hPa 0,0 l/m N 0,9 km/h (0 Bft)
26.08.2009 09:00 18,0 C 92 % 1014,2 hPa 0,0 l/m N 1,1 km/h (0 Bft)
26.08.2009 10:00 18,9 C 89 % 1014,4 hPa 0,0 l/m S 2,0 km/h (1 Bft)
26.08.2009 11:00 19,9 C 83 % 1014,7 hPa 0,0 l/m N-NW 4,3 km/h (1 Bft)
26.08.2009 12:00 20,6 C 81 % 1014,7 hPa 0,0 l/m NO 3,2 km/h (1 Bft)
26.08.2009 13:00 21,0 C 78 % 1014,7 hPa 0,0 l/m O-SO 4,5 km/h (1 Bft)
26.08.2009 14:00 22,3 C 73 % 1014,5 hPa 0,0 l/m SO 6,5 km/h (2 Bft)
26.08.2009 15:00 23,3 C 68 % 1014,4 hPa 0,0 l/m SW 8,4 km/h (2 Bft)
26.08.2009 16:00 23,3 C 65 % 1014,3 hPa 0,0 l/m SW 6,8 km/h (2 Bft)
26.08.2009 17:00 23,8 C 65 % 1014,0 hPa 0,0 l/m S-SW 6,1 km/h (2 Bft)
26.08.2009 18:00 23,3 C 67 % 1013,9 hPa 0,0 l/m SW 5,5 km/h (1 Bft)
26.08.2009 19:00 22,0 C 75 % 1013,9 hPa 0,0 l/m SW 1,9 km/h (1 Bft)
26.08.2009 20:00 20,3 C 84 % 1014,4 hPa 0,0 l/m N 1,3 km/h (1 Bft)
26.08.2009 21:00 19,5 C 87 % 1015,1 hPa 0,0 l/m N 0,3 km/h (0 Bft)
26.08.2009 22:00 18,5 C 90 % 1015,3 hPa 0,0 l/m N 0,0 km/h (0 Bft)
26.08.2009 23:00 17,7 C 94 % 1015,2 hPa 0,0 l/m N 0,3 km/h (0 Bft)
27.08.2009 00:00 17,4 C 94 % 1015,5 hPa 0,0 l/m N 0,0 km/h (0 Bft)
27.08.2009 01:00 17,1 C 95 % 1015,6 hPa 0,0 l/m N 1,1 km/h (0 Bft)
27.08.2009 02:00 16,7 C 94 % 1015,6 hPa 0,0 l/m N 0,4 km/h (0 Bft)
27.08.2009 03:00 16,1 C 94 % 1015,9 hPa 0,0 l/m N 0,0 km/h (0 Bft)
27.08.2009 04:00 15,6 C 94 % 1016,1 hPa 0,0 l/m N 0,1 km/h (0 Bft)
27.08.2009 05:00 15,1 C 94 % 1016,6 hPa 0,0 l/m N 0,0 km/h (0 Bft)
27.08.2009 06:00 14,8 C 95 % 1016,8 hPa 0,0 l/m N 0,0 km/h (0 Bft)
27.08.2009 07:00 14,8 C 96 % 1017,3 hPa 0,0 l/m N 0,0 km/h (0 Bft)
27.08.2009 08:00 15,8 C 98 % 1017,8 hPa 0,0 l/m N 1,1 km/h (0 Bft)
27.08.2009 09:00 17,4 C 99 % 1018,1 hPa 0,0 l/m SW 6,5 km/h (2 Bft)
27.08.2009 10:00 19,8 C 92 % 1018,2 hPa 0,0 l/m SO 9,9 km/h (2 Bft)
27.08.2009 11:00 22,8 C 81 % 1017,9 hPa 0,0 l/m S 13,3 km/h (3 Bft)
27.08.2009 12:00 25,0 C 66 % 1017,2 hPa 0,0 l/m SW 17,8 km/h (3 Bft)
27.08.2009 13:00 25,5 C 60 % 1016,7 hPa 0,0 l/m S-SW 16,4 km/h (3 Bft)
27.08.2009 14:00 26,2 C 56 % 1016,2 hPa 0,0 l/m W 14,5 km/h (3 Bft)
27.08.2009 15:00 26,8 C 52 % 1015,6 hPa 0,0 l/m W-NW 15,4 km/h (3 Bft)
27.08.2009 16:00 27,1 C 48 % 1015,0 hPa 0,0 l/m W 14,8 km/h (3 Bft)
27.08.2009 17:00 26,8 C 48 % 1014,6 hPa 0,0 l/m W-SW 12,5 km/h (3 Bft)
27.08.2009 18:00 26,0 C 52 % 1014,2 hPa 0,0 l/m W-SW 9,1 km/h (2 Bft)
27.08.2009 19:00 23,7 C 64 % 1014,1 hPa 0,0 l/m W-SW 4,8 km/h (1 Bft)
27.08.2009 20:00 21,1 C 76 % 1014,4 hPa 0,0 l/m N 0,9 km/h (0 Bft)
27.08.2009 21:00 19,4 C 84 % 1014,7 hPa 0,0 l/m N 0,3 km/h (0 Bft)
27.08.2009 22:00 18,5 C 87 % 1014,9 hPa 0,0 l/m N 0,9 km/h (0 Bft)
27.08.2009 23:00 17,9 C 89 % 1014,8 hPa 0,0 l/m N 0,0 km/h (0 Bft)
28.08.2009 00:00 17,5 C 89 % 1014,6 hPa 0,0 l/m N 0,0 km/h (0 Bft)
28.08.2009 01:00 16,9 C 91 % 1014,4 hPa 0,0 l/m N 0,0 km/h (0 Bft)
28.08.2009 02:00 16,3 C 92 % 1014,1 hPa 0,0 l/m N 0,0 km/h (0 Bft)
28.08.2009 03:00 15,8 C 92 % 1013,8 hPa 0,0 l/m N 0,0 km/h (0 Bft)
28.08.2009 04:00 15,4 C 93 % 1013,4 hPa 0,0 l/m N 0,0 km/h (0 Bft)
28.08.2009 05:00 15,0 C 93 % 1013,1 hPa 0,0 l/m N 0,0 km/h (0 Bft)
28.08.2009 06:00 14,7 C 94 % 1013,1 hPa 0,0 l/m N 0,0 km/h (0 Bft)
28.08.2009 07:00 14,6 C 95 % 1013,3 hPa 0,0 l/m N 0,0 km/h (0 Bft)
28.08.2009 08:00 16,3 C 96 % 1013,4 hPa 0,0 l/m S 2,4 km/h (1 Bft)
28.08.2009 09:00 19,9 C 91 % 1013,4 hPa 0,0 l/m S-SW 10,6 km/h (2 Bft)
28.08.2009 10:00 21,6 C 84 % 1013,4 hPa 0,0 l/m S-SW 11,3 km/h (2 Bft)
28.08.2009 11:00 22,9 C 77 % 1013,4 hPa 0,0 l/m W-SW 17,0 km/h (3 Bft)
28.08.2009 12:00 24,4 C 64 % 1012,8 hPa 0,0 l/m W-SW 22,1 km/h (4 Bft)
28.08.2009 13:00 25,9 C 58 % 1012,3 hPa 0,0 l/m W 26,8 km/h (4 Bft)
28.08.2009 14:00 26,2 C 55 % 1012,0 hPa 0,0 l/m W 29,9 km/h (5 Bft)
28.08.2009 15:00 26,3 C 53 % 1012,1 hPa 0,0 l/m W-NW 24,8 km/h (4 Bft)
28.08.2009 16:00 25,2 C 55 % 1012,3 hPa 0,0 l/m W 25,2 km/h (4 Bft)
28.08.2009 17:00 24,6 C 55 % 1012,5 hPa 0,0 l/m W 23,9 km/h (4 Bft)
28.08.2009 18:00 23,6 C 56 % 1012,7 hPa 0,0 l/m W-NW 22,7 km/h (4 Bft)
28.08.2009 19:00 21,8 C 63 % 1013,0 hPa 0,0 l/m W-NW 11,9 km/h (2 Bft)
28.08.2009 20:00 20,6 C 67 % 1013,3 hPa 0,0 l/m W-NW 11,9 km/h (2 Bft)
28.08.2009 21:00 20,0 C 66 % 1014,2 hPa 0,0 l/m W-NW 11,1 km/h (2 Bft)
28.08.2009 22:00 19,2 C 69 % 1015,0 hPa 0,0 l/m NW 9,9 km/h (2 Bft)
28.08.2009 23:00 18,2 C 73 % 1015,3 hPa 0,0 l/m W-NW 4,0 km/h (1 Bft)
29.08.2009 00:00 17,8 C 72 % 1015,5 hPa 0,0 l/m NW 9,0 km/h (2 Bft)
29.08.2009 01:00 17,4 C 71 % 1015,4 hPa 0,0 l/m W-NW 9,5 km/h (2 Bft)
29.08.2009 02:00 17,1 C 70 % 1015,2 hPa 0,0 l/m W-SW 7,2 km/h (2 Bft)
29.08.2009 03:00 16,5 C 73 % 1015,4 hPa 0,0 l/m W-SW 2,7 km/h (1 Bft)
29.08.2009 04:00 16,1 C 73 % 1015,6 hPa 0,0 l/m SW 4,8 km/h (1 Bft)
29.08.2009 05:00 15,9 C 72 % 1015,8 hPa 0,0 l/m W-NW 5,2 km/h (1 Bft)
29.08.2009 06:00 15,5 C 72 % 1016,4 hPa 0,0 l/m NW 11,0 km/h (2 Bft)
29.08.2009 07:00 14,3 C 67 % 1017,2 hPa 0,0 l/m NW 15,2 km/h (3 Bft)
29.08.2009 08:00 13,8 C 67 % 1017,8 hPa 0,0 l/m W-NW 8,3 km/h (2 Bft)
29.08.2009 09:00 14,9 C 64 % 1018,1 hPa 0,0 l/m NW 8,6 km/h (2 Bft)
29.08.2009 10:00 16,1 C 55 % 1018,6 hPa 0,0 l/m W 14,6 km/h (3 Bft)
29.08.2009 11:00 17,6 C 47 % 1018,7 hPa 0,0 l/m W 18,0 km/h (3 Bft)
29.08.2009 12:00 18,4 C 47 % 1018,8 hPa 0,0 l/m W 20,0 km/h (4 Bft)
29.08.2009 13:00 19,2 C 43 % 1018,7 hPa 0,0 l/m W-NW 24,7 km/h (4 Bft)
29.08.2009 14:00 18,8 C 41 % 1018,6 hPa 0,0 l/m NW 17,6 km/h (3 Bft)
29.08.2009 15:00 19,2 C 39 % 1018,5 hPa 0,0 l/m W-NW 14,1 km/h (3 Bft)
29.08.2009 16:00 19,5 C 38 % 1018,5 hPa 0,0 l/m W-NW 11,7 km/h (2 Bft)
29.08.2009 17:00 18,9 C 40 % 1018,7 hPa 0,0 l/m NW 11,0 km/h (2 Bft)
29.08.2009 18:00 17,9 C 43 % 1019,3 hPa 0,0 l/m NO 11,6 km/h (2 Bft)
29.08.2009 19:00 16,7 C 49 % 1019,8 hPa 0,0 l/m N-NO 12,2 km/h (2 Bft)
29.08.2009 20:00 13,9 C 65 % 1020,3 hPa 0,0 l/m N 3,9 km/h (1 Bft)
29.08.2009 21:00 11,8 C 76 % 1020,8 hPa 0,0 l/m N 1,6 km/h (1 Bft)
29.08.2009 22:00 10,6 C 81 % 1021,2 hPa 0,0 l/m N 0,8 km/h (0 Bft)
29.08.2009 23:00 10,0 C 83 % 1021,4 hPa 0,0 l/m N 0,7 km/h (0 Bft)
30.08.2009 00:00 9,5 C 84 % 1021,6 hPa 0,0 l/m N 0,3 km/h (0 Bft)
30.08.2009 01:00 8,7 C 89 % 1021,5 hPa 0,0 l/m N 0,4 km/h (0 Bft)
30.08.2009 02:00 8,4 C 89 % 1021,0 hPa 0,0 l/m N 0,9 km/h (0 Bft)
30.08.2009 03:00 8,0 C 89 % 1020,9 hPa 0,0 l/m N 2,4 km/h (1 Bft)
30.08.2009 04:00 7,7 C 90 % 1020,7 hPa 0,0 l/m N 0,9 km/h (0 Bft)
30.08.2009 05:00 7,4 C 91 % 1020,6 hPa 0,0 l/m N-NW 1,7 km/h (1 Bft)
30.08.2009 06:00 7,3 C 90 % 1021,0 hPa 0,0 l/m N 0,5 km/h (0 Bft)
30.08.2009 07:00 7,7 C 90 % 1021,2 hPa 0,0 l/m N-NW 1,6 km/h (1 Bft)
30.08.2009 08:00 10,6 C 82 % 1021,3 hPa 0,0 l/m N-NW 5,1 km/h (1 Bft)
30.08.2009 09:00 13,4 C 72 % 1021,1 hPa 0,0 l/m NO 6,3 km/h (2 Bft)
30.08.2009 10:00 16,0 C 61 % 1021,2 hPa 0,0 l/m O-SO 9,4 km/h (2 Bft)
30.08.2009 11:00 17,7 C 54 % 1021,1 hPa 0,0 l/m O 9,7 km/h (2 Bft)
30.08.2009 12:00 18,9 C 47 % 1020,8 hPa 0,0 l/m O-NO 10,9 km/h (2 Bft)
30.08.2009 13:00 19,8 C 42 % 1020,3 hPa 0,0 l/m O-SO 10,7 km/h (2 Bft)
30.08.2009 14:00 20,4 C 40 % 1019,9 hPa 0,0 l/m O-NO 8,3 km/h (2 Bft)
30.08.2009 15:00 21,1 C 37 % 1019,5 hPa 0,0 l/m S 7,9 km/h (2 Bft)
30.08.2009 16:00 21,4 C 37 % 1019,2 hPa 0,0 l/m NO 8,2 km/h (2 Bft)
30.08.2009 17:00 21,3 C 37 % 1019,0 hPa 0,0 l/m N-NO 6,3 km/h (2 Bft)
30.08.2009 18:00 20,5 C 38 % 1019,0 hPa 0,0 l/m N 4,9 km/h (1 Bft)
30.08.2009 19:00 17,6 C 58 % 1018,9 hPa 0,0 l/m N 1,7 km/h (1 Bft)
30.08.2009 20:00 14,9 C 67 % 1019,3 hPa 0,0 l/m N 1,1 km/h (0 Bft)
30.08.2009 21:00 13,3 C 71 % 1020,1 hPa 0,0 l/m N 1,2 km/h (1 Bft)
30.08.2009 22:00 12,3 C 75 % 1020,3 hPa 0,0 l/m N 1,6 km/h (1 Bft)
30.08.2009 23:00 11,7 C 77 % 1020,1 hPa 0,0 l/m N 2,3 km/h (1 Bft)
Min-Datum _ 30.08.09 29.08.09 24.08.09 - - 24.08.09
_ Min-Zeit 07:05 16:10 20:15 - - 06:20
Minimum _ 7,1 C 34 % 1007,6 hPa - - 0,0 km/h (0 Bft)
Max-Datum _ 24.08.09 27.08.09 30.08.09 25.08.09 - 28.08.09
_ Max-Zeit 16:45 08:55 00:40 21:15 - 14:25
Maximum _ 28,9 C 99 % 1021,7 hPa 1,8 l/m - 40,2 km/h
W-SW (6 Bft)
Durchschnitt _ 18,5 C 74 % 1014,7 hPa #2,8 l/m W 6,9 km/h (2 Bft)